• Join FlightAware (Why Join?)
  • Login
  • US Flag 
03:37AM EDT


 

Airport Tracker/Info


-or-


 

Live Flight TrackerFlight Track Log ✈ AWE3417 ✈ 18-Apr-2013 ✈ KMHT - KDCA

Flight Track Log - Related Links

Times and Time Zones

All times are in EDT time to prevent confusion due to time zone crossing. See the AWE3417 flight status page for this flight to view local times or setup timezone preferences in your user account.

Time Position Orientation Groundspeed Altitude Reporting Facility
EDT Latitude Longitude Course Direction KTS MPH feet Rate Location/Type
05:10PM 42.9167 -71.4167 202° Southwest 135 155 1,200  Level KA90
05:11PM 42.8878 -71.4425 213° Southwest 192 221 2,300 2,040 Climbing Boston Center
05:12PM 43.0502 -71.0993 65° Northeast  Level FlightAware Approximate
05:12PM 42.8925 -71.5078 276° West 256 295 4,800  Level Boston Center
05:13PM 43.0809 -70.9797 132° Southeast  Level FlightAware Approximate
05:13PM 42.9597 -71.5664 327° Northwest 285 328 8,000  Level Boston Center
05:14PM 43.0106 -70.8939 144° Southeast  Level FlightAware Approximate
05:14PM 43.0133 -71.5003 42° Northeast 241 277 10,000  Level Boston Center
05:15PM 42.9269 -70.8981 202° Southwest  Level FlightAware Approximate
05:15PM 43.0308 -71.3608 80° East 284 327 11,800  Level Boston Center
05:16PM 42.8392 -70.9468 202° Southwest  Level FlightAware Approximate
05:16PM 43.0483 -71.2297 80° East 329 379 14,200  Level Boston Center
05:17PM 43.0636 -71.1072 80° East 361 415 15,800 1,860 Climbing Boston Center
05:18PM 43.0536 -70.9597 95° East 372 428 17,900 1,680 Climbing Boston Center
05:19PM 42.9714 -70.8964 151° Southeast 340 391 19,300 1,440 Climbing Boston Center
05:20PM 42.8803 -70.9328 196° South 268 308 20,800 1,500 Climbing Boston Center
05:21PM 42.7869 -70.9831 202° Southwest 306 352 22,300 1,380 Climbing Boston Center
05:22PM 42.6917 -71.0278 199° South 339 390 23,700 1,320 Climbing Boston Center
05:23PM 42.5964 -71.0722 199° South 363 418 25,000 1,500 Climbing Boston Center
05:24PM 42.4969 -71.1222 200° South 379 436 26,700 1,560 Climbing Boston Center
05:25PM 42.4125 -71.2028 215° Southwest 370 426 28,100 1,320 Climbing Boston Center
05:26PM 42.3700 -71.3272 245° Southwest 357 411 29,400 1,380 Climbing Boston Center
05:27PM 42.3317 -71.4600 249° West 362 417 31,000 1,260 Climbing Boston Center
05:28PM 42.2867 -71.5842 244° Southwest 367 422 32,000 480 Climbing Boston Center
05:29PM 42.2481 -71.7136 248° West 372 428 32,000  Level Boston Center
05:30PM 42.2069 -71.8403 246° West 372 428 32,000  Level Boston Center
05:31PM 42.1681 -71.9667 247° West 372 428 32,000  Level Boston Center
05:32PM 42.1289 -72.0958 248° West 377 434 32,000  Level Boston Center
05:33PM 42.0792 -72.2164 241° Southwest 377 434 32,000  Level Boston Center
05:34PM 42.0147 -72.3283 232° Southwest 377 434 32,000  Level Boston Center
05:35PM 41.9503 -72.4400 232° Southwest 382 440 32,000  Level Boston Center
05:36PM 41.8939 -72.5406 233° Southwest 382 440 32,000  Level Boston Center
05:37PM 41.8228 -72.6658 233° Southwest 389 448 32,000  Level Boston Center
05:38PM 41.7600 -72.7683 231° Southwest 394 453 32,000  Level Boston Center
05:39PM 41.6950 -72.8794 232° Southwest 394 453 32,000 -60 Level Boston Center
05:40PM 41.6322 -72.9928 233° Southwest 389 448 31,900 -420 Descending Boston Center
05:41PM 41.5669 -73.1006 231° Southwest 389 448 31,200 -780 Descending Boston Center
05:42PM 41.4975 -73.2217 233° Southwest 383 441 30,400 -780 Descending Boston Center
05:44PM 41.3756 -73.4225 231° Southwest 378 435 29,100 -720 Descending New York Center
05:45PM 41.3147 -73.5308 233° Southwest 378 435 28,400 -600 Descending New York Center
05:46PM 41.2539 -73.6331 232° Southwest 372 428 28,000 -240 Descending New York Center
05:47PM 41.1867 -73.7433 231° Southwest 367 422 28,000  Level New York Center
05:48PM 41.1214 -73.8558 232° Southwest 373 429 28,000  Level New York Center
05:49PM 41.0539 -73.9656 231° Southwest 391 450 28,000  Level New York Center
05:50PM 40.9883 -74.0781 232° Southwest 391 450 28,000  Level New York Center
05:51PM 40.9336 -74.1686 231° Southwest 391 450 28,000  Level New York Center
05:52PM 40.8572 -74.2883 230° Southwest 391 450 28,000  Level New York Center
05:53PM 40.7892 -74.4000 231° Southwest 391 450 28,000  Level New York Center
05:54PM 40.7233 -74.5114 232° Southwest 391 450 28,000 -540 Level New York Center
05:55PM 40.6594 -74.6172 232° Southwest 384 442 27,000 -1,080 Descending New York Center
05:56PM 40.5975 -74.7206 232° Southwest 374 430 25,900 -1,380 Descending New York Center
05:57PM 40.5122 -74.8439 228° Southwest 388 447 24,400 -1,560 Descending New York Center
05:58PM 40.4419 -74.9461 228° Southwest 403 464 22,800 -1,620 Descending New York Center
05:59PM 40.3675 -75.0478 226° Southwest 397 457 21,200 -1,440 Descending New York Center
06:00PM 40.2969 -75.1469 227° Southwest 392 451 20,000 -660 Descending New York Center
06:01PM 40.2286 -75.2486 229° Southwest 387 445 20,000  Level New York Center
06:02PM 40.1561 -75.3444 225° Southwest 381 438 20,000  Level New York Center
06:03PM 40.0833 -75.4453 227° Southwest 381 438 20,000  Level New York Center
06:04PM 40.0150 -75.5439 228° Southwest 386 444 20,000  Level New York Center
06:05PM 39.9442 -75.6419 227° Southwest 386 444 20,000  Level New York Center
06:06PM 39.8836 -75.7458 233° Southwest 381 438 20,000  Level New York Center
06:07PM 39.8269 -75.8500 235° Southwest 368 423 20,000 -540 Level New York Center
06:08PM 39.7747 -75.9461 235° Southwest 363 418 19,000 -1,320 Descending New York Center
06:09PM 39.7217 -76.0611 239° Southwest 350 403 17,400 -1,620 Descending New York Center
06:10PM 39.6997 -76.1781 256° West 340 391 15,900 -1,620 Descending New York Center
06:11PM 39.6667 -76.3833 258° West 325 374 13,100 -1,440 Descending Potomac TRACON
06:12PM 39.6500 -76.5000 260° West 314 361 12,000 -600 Descending Potomac TRACON
06:13PM 39.5833 -76.5667 218° Southwest 321 369 12,000  Level Potomac TRACON
06:14PM 39.5000 -76.6000 197° South 317 365 12,000  Level Potomac TRACON
06:15PM 39.4167 -76.6167 189° South 319 367 12,000 -540 Level Potomac TRACON
06:16PM 39.3333 -76.6333 189° South 318 366 11,000 -1,020 Descending Potomac TRACON
06:17PM 39.2500 -76.6500 189° South 298 343 10,000 -480 Descending Potomac TRACON
06:19PM 39.1667 -76.6667 189° South 265 305 10,000  Level Potomac TRACON
06:20PM 39.1167 -76.7333 226° Southwest 261 300 10,000 -480 Level Potomac TRACON
06:20PM 39.0833 -76.8167 243° Southwest 261 300 9,200 -1,320 Descending Potomac TRACON
06:21PM 39.0667 -76.9000 256° West 257 296 7,500 -1,860 Descending Potomac TRACON
06:22PM 39.0500 -76.9833 256° West 256 295 5,500 -2,100 Descending Potomac TRACON
06:23PM 39.0333 -77.0667 256° West 261 300 3,400 -1,260 Descending Potomac TRACON
06:24PM 39.0000 -77.1500 243° Southwest 210 242 3,000 -300 Descending Potomac TRACON
06:25PM 38.9667 -77.1500 180° South 162 186 2,900 -120 Descending Potomac TRACON